sensor_id;sensor_type;location;lat;lon;timestamp;P1;durP1;ratioP1;P2;durP2;ratioP2
56455;SDS011;42354;53.218;6.564;2023-08-20T00:00:42;13.40;;;3.13;;
56455;SDS011;42354;53.218;6.564;2023-08-20T00:03:10;13.50;;;2.50;;
56455;SDS011;42354;53.218;6.564;2023-08-20T00:05:37;10.32;;;2.03;;
56455;SDS011;42354;53.218;6.564;2023-08-20T00:08:04;12.27;;;2.50;;
56455;SDS011;42354;53.218;6.564;2023-08-20T00:10:30;10.27;;;2.55;;
56455;SDS011;42354;53.218;6.564;2023-08-20T00:12:56;13.00;;;3.40;;
56455;SDS011;42354;53.218;6.564;2023-08-20T00:15:21;12.80;;;3.20;;
56455;SDS011;42354;53.218;6.564;2023-08-20T00:17:51;12.15;;;2.83;;
56455;SDS011;42354;53.218;6.564;2023-08-20T00:20:17;13.70;;;3.50;;
56455;SDS011;42354;53.218;6.564;2023-08-20T00:22:44;13.50;;;3.05;;
56455;SDS011;42354;53.218;6.564;2023-08-20T00:25:10;15.95;;;4.03;;
56455;SDS011;42354;53.218;6.564;2023-08-20T00:27:40;9.90;;;3.00;;
56455;SDS011;42354;53.218;6.564;2023-08-20T00:30:06;14.13;;;4.05;;
56455;SDS011;42354;53.218;6.564;2023-08-20T00:32:32;13.38;;;3.47;;
56455;SDS011;42354;53.218;6.564;2023-08-20T00:34:57;12.40;;;3.53;;
56455;SDS011;42354;53.218;6.564;2023-08-20T00:37:23;17.13;;;4.28;;
56455;SDS011;42354;53.218;6.564;2023-08-20T00:39:48;12.80;;;4.03;;
56455;SDS011;42354;53.218;6.564;2023-08-20T00:42:13;10.88;;;3.65;;
56455;SDS011;42354;53.218;6.564;2023-08-20T00:44:40;15.35;;;3.90;;
56455;SDS011;42354;53.218;6.564;2023-08-20T00:47:06;9.52;;;3.78;;
56455;SDS011;42354;53.218;6.564;2023-08-20T00:49:32;10.27;;;3.63;;
56455;SDS011;42354;53.218;6.564;2023-08-20T00:51:58;11.73;;;3.28;;
56455;SDS011;42354;53.218;6.564;2023-08-20T00:54:24;12.88;;;3.00;;
56455;SDS011;42354;53.218;6.564;2023-08-20T00:56:51;13.43;;;3.30;;
56455;SDS011;42354;53.218;6.564;2023-08-20T00:59:17;7.68;;;2.83;;
56455;SDS011;42354;53.218;6.564;2023-08-20T01:01:43;11.95;;;3.58;;
56455;SDS011;42354;53.218;6.564;2023-08-20T01:04:08;11.07;;;3.55;;
56455;SDS011;42354;53.218;6.564;2023-08-20T01:12:14;13.00;;;4.13;;
56455;SDS011;42354;53.218;6.564;2023-08-20T01:14:41;12.32;;;3.78;;
56455;SDS011;42354;53.218;6.564;2023-08-20T01:17:06;11.18;;;4.05;;
56455;SDS011;42354;53.218;6.564;2023-08-20T01:19:32;13.75;;;4.07;;
56455;SDS011;42354;53.218;6.564;2023-08-20T01:30:59;13.48;;;3.53;;
56455;SDS011;42354;53.218;6.564;2023-08-20T01:33:28;9.75;;;3.85;;
56455;SDS011;42354;53.218;6.564;2023-08-20T01:35:54;9.35;;;3.60;;
56455;SDS011;42354;53.218;6.564;2023-08-20T01:38:20;9.80;;;3.08;;
56455;SDS011;42354;53.218;6.564;2023-08-20T01:40:46;12.18;;;3.33;;
56455;SDS011;42354;53.218;6.564;2023-08-20T01:43:12;8.30;;;2.70;;
56455;SDS011;42354;53.218;6.564;2023-08-20T01:45:38;6.85;;;3.10;;
56455;SDS011;42354;53.218;6.564;2023-08-20T01:48:04;11.05;;;3.65;;
56455;SDS011;42354;53.218;6.564;2023-08-20T01:50:31;11.27;;;4.43;;
56455;SDS011;42354;53.218;6.564;2023-08-20T01:52:58;13.82;;;3.53;;
56455;SDS011;42354;53.218;6.564;2023-08-20T01:55:23;11.52;;;2.97;;
56455;SDS011;42354;53.218;6.564;2023-08-20T01:57:48;11.18;;;3.28;;
56455;SDS011;42354;53.218;6.564;2023-08-20T02:00:14;10.32;;;3.35;;
56455;SDS011;42354;53.218;6.564;2023-08-20T02:02:39;12.25;;;4.00;;
56455;SDS011;42354;53.218;6.564;2023-08-20T02:05:05;11.13;;;3.08;;
56455;SDS011;42354;53.218;6.564;2023-08-20T02:07:31;13.55;;;4.05;;
56455;SDS011;42354;53.218;6.564;2023-08-20T02:09:57;11.68;;;4.47;;
56455;SDS011;42354;53.218;6.564;2023-08-20T02:12:22;16.05;;;4.50;;
56455;SDS011;42354;53.218;6.564;2023-08-20T02:14:47;12.73;;;4.68;;
56455;SDS011;42354;53.218;6.564;2023-08-20T02:17:13;17.13;;;5.53;;
56455;SDS011;42354;53.218;6.564;2023-08-20T02:19:39;14.32;;;6.20;;
56455;SDS011;42354;53.218;6.564;2023-08-20T02:22:04;15.57;;;5.78;;
56455;SDS011;42354;53.218;6.564;2023-08-20T02:24:30;16.23;;;6.85;;
56455;SDS011;42354;53.218;6.564;2023-08-20T02:26:55;18.45;;;6.30;;
56455;SDS011;42354;53.218;6.564;2023-08-20T02:29:21;18.90;;;6.65;;
56455;SDS011;42354;53.218;6.564;2023-08-20T02:31:46;15.23;;;6.68;;
56455;SDS011;42354;53.218;6.564;2023-08-20T02:34:12;15.35;;;6.30;;
56455;SDS011;42354;53.218;6.564;2023-08-20T02:36:37;20.10;;;6.93;;
56455;SDS011;42354;53.218;6.564;2023-08-20T02:39:02;24.67;;;8.00;;
56455;SDS011;42354;53.218;6.564;2023-08-20T02:41:32;22.15;;;8.25;;
56455;SDS011;42354;53.218;6.564;2023-08-20T02:43:58;16.45;;;8.43;;
56455;SDS011;42354;53.218;6.564;2023-08-20T02:46:24;21.77;;;8.40;;
56455;SDS011;42354;53.218;6.564;2023-08-20T02:48:49;26.90;;;8.82;;
56455;SDS011;42354;53.218;6.564;2023-08-20T02:51:15;26.55;;;9.52;;
56455;SDS011;42354;53.218;6.564;2023-08-20T02:53:40;21.92;;;9.65;;
56455;SDS011;42354;53.218;6.564;2023-08-20T02:56:06;19.23;;;9.93;;
56455;SDS011;42354;53.218;6.564;2023-08-20T02:58:31;24.83;;;10.52;;
56455;SDS011;42354;53.218;6.564;2023-08-20T03:00:56;25.48;;;10.25;;
56455;SDS011;42354;53.218;6.564;2023-08-20T03:03:22;19.98;;;9.35;;
56455;SDS011;42354;53.218;6.564;2023-08-20T03:05:48;24.10;;;9.73;;
56455;SDS011;42354;53.218;6.564;2023-08-20T03:08:13;24.27;;;9.45;;
56455;SDS011;42354;53.218;6.564;2023-08-20T03:10:38;22.52;;;9.45;;
56455;SDS011;42354;53.218;6.564;2023-08-20T03:13:04;16.73;;;8.52;;
56455;SDS011;42354;53.218;6.564;2023-08-20T03:15:29;17.52;;;8.27;;
56455;SDS011;42354;53.218;6.564;2023-08-20T03:17:55;27.73;;;8.88;;
56455;SDS011;42354;53.218;6.564;2023-08-20T03:20:20;18.17;;;9.02;;
56455;SDS011;42354;53.218;6.564;2023-08-20T03:22:46;19.48;;;8.27;;
56455;SDS011;42354;53.218;6.564;2023-08-20T03:25:14;20.80;;;8.57;;
56455;SDS011;42354;53.218;6.564;2023-08-20T03:27:39;20.20;;;8.85;;
56455;SDS011;42354;53.218;6.564;2023-08-20T03:30:05;18.63;;;8.70;;
56455;SDS011;42354;53.218;6.564;2023-08-20T03:32:31;21.40;;;8.57;;
56455;SDS011;42354;53.218;6.564;2023-08-20T03:34:57;19.08;;;8.30;;
56455;SDS011;42354;53.218;6.564;2023-08-20T03:37:27;16.85;;;6.82;;
56455;SDS011;42354;53.218;6.564;2023-08-20T03:39:52;20.67;;;7.18;;
56455;SDS011;42354;53.218;6.564;2023-08-20T03:42:18;23.50;;;7.30;;
56455;SDS011;42354;53.218;6.564;2023-08-20T03:44:44;19.17;;;6.97;;
56455;SDS011;42354;53.218;6.564;2023-08-20T03:47:10;19.90;;;6.03;;
56455;SDS011;42354;53.218;6.564;2023-08-20T03:49:35;14.68;;;5.90;;
56455;SDS011;42354;53.218;6.564;2023-08-20T03:52:01;15.10;;;5.72;;
56455;SDS011;42354;53.218;6.564;2023-08-20T03:54:31;14.20;;;5.30;;
56455;SDS011;42354;53.218;6.564;2023-08-20T03:56:57;14.40;;;5.10;;
56455;SDS011;42354;53.218;6.564;2023-08-20T03:59:23;12.23;;;5.05;;
56455;SDS011;42354;53.218;6.564;2023-08-20T04:01:48;19.75;;;6.15;;
56455;SDS011;42354;53.218;6.564;2023-08-20T04:04:14;16.58;;;5.55;;
56455;SDS011;42354;53.218;6.564;2023-08-20T04:06:39;14.65;;;5.65;;
56455;SDS011;42354;53.218;6.564;2023-08-20T04:09:04;16.35;;;5.70;;
56455;SDS011;42354;53.218;6.564;2023-08-20T04:11:31;13.55;;;5.50;;
56455;SDS011;42354;53.218;6.564;2023-08-20T04:13:56;16.42;;;6.80;;
56455;SDS011;42354;53.218;6.564;2023-08-20T04:16:23;20.45;;;7.15;;
56455;SDS011;42354;53.218;6.564;2023-08-20T04:18:49;15.55;;;7.70;;
56455;SDS011;42354;53.218;6.564;2023-08-20T04:21:15;20.48;;;7.53;;
56455;SDS011;42354;53.218;6.564;2023-08-20T04:23:40;17.50;;;8.00;;
56455;SDS011;42354;53.218;6.564;2023-08-20T04:26:06;15.48;;;6.50;;
56455;SDS011;42354;53.218;6.564;2023-08-20T04:28:32;23.90;;;8.10;;
56455;SDS011;42354;53.218;6.564;2023-08-20T04:30:57;17.30;;;7.80;;
56455;SDS011;42354;53.218;6.564;2023-08-20T04:33:25;16.80;;;7.57;;
56455;SDS011;42354;53.218;6.564;2023-08-20T04:35:50;17.17;;;6.78;;
56455;SDS011;42354;53.218;6.564;2023-08-20T04:38:15;17.35;;;7.78;;
56455;SDS011;42354;53.218;6.564;2023-08-20T04:40:41;15.45;;;7.13;;
56455;SDS011;42354;53.218;6.564;2023-08-20T04:43:06;15.13;;;7.63;;
56455;SDS011;42354;53.218;6.564;2023-08-20T04:45:32;17.73;;;7.32;;
56455;SDS011;42354;53.218;6.564;2023-08-20T04:47:57;17.98;;;7.28;;
56455;SDS011;42354;53.218;6.564;2023-08-20T04:50:24;18.63;;;6.90;;
56455;SDS011;42354;53.218;6.564;2023-08-20T04:52:50;14.85;;;6.00;;
56455;SDS011;42354;53.218;6.564;2023-08-20T04:55:15;18.67;;;6.10;;
56455;SDS011;42354;53.218;6.564;2023-08-20T04:57:41;14.77;;;6.32;;
56455;SDS011;42354;53.218;6.564;2023-08-20T05:00:06;15.50;;;6.35;;
56455;SDS011;42354;53.218;6.564;2023-08-20T05:02:32;12.40;;;5.75;;
56455;SDS011;42354;53.218;6.564;2023-08-20T05:04:58;16.45;;;5.93;;
56455;SDS011;42354;53.218;6.564;2023-08-20T05:07:23;16.02;;;6.50;;
56455;SDS011;42354;53.218;6.564;2023-08-20T05:09:49;13.15;;;5.43;;
56455;SDS011;42354;53.218;6.564;2023-08-20T05:12:15;14.90;;;6.20;;
56455;SDS011;42354;53.218;6.564;2023-08-20T05:14:40;13.15;;;5.82;;
56455;SDS011;42354;53.218;6.564;2023-08-20T05:17:05;15.85;;;6.05;;
56455;SDS011;42354;53.218;6.564;2023-08-20T05:19:31;17.25;;;6.55;;
56455;SDS011;42354;53.218;6.564;2023-08-20T05:21:56;17.45;;;6.82;;
56455;SDS011;42354;53.218;6.564;2023-08-20T05:24:24;18.02;;;6.47;;
56455;SDS011;42354;53.218;6.564;2023-08-20T05:27:03;14.73;;;5.95;;
56455;SDS011;42354;53.218;6.564;2023-08-20T05:29:29;16.50;;;6.28;;
56455;SDS011;42354;53.218;6.564;2023-08-20T05:31:55;13.65;;;6.22;;
56455;SDS011;42354;53.218;6.564;2023-08-20T05:34:21;13.82;;;6.57;;
56455;SDS011;42354;53.218;6.564;2023-08-20T05:36:46;13.82;;;6.15;;
56455;SDS011;42354;53.218;6.564;2023-08-20T05:39:11;13.63;;;7.00;;
56455;SDS011;42354;53.218;6.564;2023-08-20T05:41:37;15.23;;;7.15;;
56455;SDS011;42354;53.218;6.564;2023-08-20T05:44:02;11.57;;;5.95;;
56455;SDS011;42354;53.218;6.564;2023-08-20T05:46:31;15.55;;;6.18;;
56455;SDS011;42354;53.218;6.564;2023-08-20T05:48:56;13.45;;;5.60;;
56455;SDS011;42354;53.218;6.564;2023-08-20T05:51:22;15.38;;;6.90;;
56455;SDS011;42354;53.218;6.564;2023-08-20T05:53:47;14.85;;;6.53;;
56455;SDS011;42354;53.218;6.564;2023-08-20T05:56:12;14.50;;;5.70;;
56455;SDS011;42354;53.218;6.564;2023-08-20T05:58:38;15.10;;;6.00;;
56455;SDS011;42354;53.218;6.564;2023-08-20T06:01:03;14.77;;;5.63;;
56455;SDS011;42354;53.218;6.564;2023-08-20T06:03:28;9.98;;;5.20;;
56455;SDS011;42354;53.218;6.564;2023-08-20T06:05:55;14.90;;;5.57;;
56455;SDS011;42354;53.218;6.564;2023-08-20T06:08:22;15.50;;;5.90;;
56455;SDS011;42354;53.218;6.564;2023-08-20T06:10:47;12.05;;;5.78;;
56455;SDS011;42354;53.218;6.564;2023-08-20T06:13:13;17.05;;;6.30;;
56455;SDS011;42354;53.218;6.564;2023-08-20T06:15:38;13.88;;;6.20;;
56455;SDS011;42354;53.218;6.564;2023-08-20T06:18:04;15.77;;;5.35;;
56455;SDS011;42354;53.218;6.564;2023-08-20T06:20:29;16.25;;;5.28;;
56455;SDS011;42354;53.218;6.564;2023-08-20T06:22:55;12.65;;;5.13;;
56455;SDS011;42354;53.218;6.564;2023-08-20T06:25:20;11.80;;;4.50;;
56455;SDS011;42354;53.218;6.564;2023-08-20T06:27:45;12.40;;;4.90;;
56455;SDS011;42354;53.218;6.564;2023-08-20T06:30:11;10.75;;;4.53;;
56455;SDS011;42354;53.218;6.564;2023-08-20T06:32:36;11.13;;;4.70;;
56455;SDS011;42354;53.218;6.564;2023-08-20T06:35:02;14.05;;;4.80;;
56455;SDS011;42354;53.218;6.564;2023-08-20T06:37:27;12.13;;;4.90;;
56455;SDS011;42354;53.218;6.564;2023-08-20T06:39:53;9.95;;;4.80;;
56455;SDS011;42354;53.218;6.564;2023-08-20T06:42:18;9.43;;;4.00;;
56455;SDS011;42354;53.218;6.564;2023-08-20T06:44:44;15.95;;;4.53;;
56455;SDS011;42354;53.218;6.564;2023-08-20T06:47:09;14.27;;;4.47;;
56455;SDS011;42354;53.218;6.564;2023-08-20T06:49:35;12.10;;;4.45;;
56455;SDS011;42354;53.218;6.564;2023-08-20T06:52:00;9.63;;;4.05;;
56455;SDS011;42354;53.218;6.564;2023-08-20T06:54:25;11.30;;;4.38;;
56455;SDS011;42354;53.218;6.564;2023-08-20T06:56:51;11.00;;;4.50;;
56455;SDS011;42354;53.218;6.564;2023-08-20T06:59:16;9.88;;;4.00;;
56455;SDS011;42354;53.218;6.564;2023-08-20T07:01:42;11.07;;;4.53;;
56455;SDS011;42354;53.218;6.564;2023-08-20T07:04:07;11.68;;;5.40;;
56455;SDS011;42354;53.218;6.564;2023-08-20T07:06:33;12.95;;;4.55;;
56455;SDS011;42354;53.218;6.564;2023-08-20T07:08:58;10.75;;;4.60;;
56455;SDS011;42354;53.218;6.564;2023-08-20T07:11:24;11.65;;;4.80;;
56455;SDS011;42354;53.218;6.564;2023-08-20T07:13:49;11.93;;;4.60;;
56455;SDS011;42354;53.218;6.564;2023-08-20T07:16:18;13.40;;;4.20;;
56455;SDS011;42354;53.218;6.564;2023-08-20T07:18:44;13.32;;;4.05;;
56455;SDS011;42354;53.218;6.564;2023-08-20T07:21:09;12.73;;;3.25;;
56455;SDS011;42354;53.218;6.564;2023-08-20T07:23:35;12.80;;;4.03;;
56455;SDS011;42354;53.218;6.564;2023-08-20T07:26:04;14.55;;;4.28;;
56455;SDS011;42354;53.218;6.564;2023-08-20T07:28:30;16.27;;;4.05;;
56455;SDS011;42354;53.218;6.564;2023-08-20T07:31:14;14.82;;;4.28;;
56455;SDS011;42354;53.218;6.564;2023-08-20T07:33:40;13.23;;;3.28;;
56455;SDS011;42354;53.218;6.564;2023-08-20T07:36:05;14.18;;;3.75;;
56455;SDS011;42354;53.218;6.564;2023-08-20T07:38:31;15.63;;;4.28;;
56455;SDS011;42354;53.218;6.564;2023-08-20T07:40:56;12.93;;;3.50;;
56455;SDS011;42354;53.218;6.564;2023-08-20T07:43:21;13.52;;;2.97;;
56455;SDS011;42354;53.218;6.564;2023-08-20T07:45:47;13.43;;;3.10;;
56455;SDS011;42354;53.218;6.564;2023-08-20T07:48:14;12.38;;;2.95;;
56455;SDS011;42354;53.218;6.564;2023-08-20T07:50:43;17.25;;;3.60;;
56455;SDS011;42354;53.218;6.564;2023-08-20T07:53:08;14.88;;;3.60;;
56455;SDS011;42354;53.218;6.564;2023-08-20T07:55:33;9.88;;;3.63;;
56455;SDS011;42354;53.218;6.564;2023-08-20T07:57:59;16.92;;;3.97;;
56455;SDS011;42354;53.218;6.564;2023-08-20T08:00:24;13.10;;;2.95;;
56455;SDS011;42354;53.218;6.564;2023-08-20T08:02:50;10.98;;;3.00;;
56455;SDS011;42354;53.218;6.564;2023-08-20T08:05:15;11.27;;;2.40;;
56455;SDS011;42354;53.218;6.564;2023-08-20T08:07:40;11.57;;;2.42;;
56455;SDS011;42354;53.218;6.564;2023-08-20T08:10:06;11.73;;;3.40;;
56455;SDS011;42354;53.218;6.564;2023-08-20T08:12:32;12.40;;;2.70;;
56455;SDS011;42354;53.218;6.564;2023-08-20T08:14:57;13.05;;;2.83;;
56455;SDS011;42354;53.218;6.564;2023-08-20T08:17:25;11.63;;;2.65;;
56455;SDS011;42354;53.218;6.564;2023-08-20T08:19:51;9.93;;;2.25;;
56455;SDS011;42354;53.218;6.564;2023-08-20T08:22:18;16.92;;;3.45;;
56455;SDS011;42354;53.218;6.564;2023-08-20T08:24:44;10.20;;;2.30;;
56455;SDS011;42354;53.218;6.564;2023-08-20T08:27:09;10.77;;;2.38;;
56455;SDS011;42354;53.218;6.564;2023-08-20T08:29:38;10.70;;;1.88;;
56455;SDS011;42354;53.218;6.564;2023-08-20T08:32:03;13.82;;;3.40;;
56455;SDS011;42354;53.218;6.564;2023-08-20T08:34:28;12.70;;;2.13;;
56455;SDS011;42354;53.218;6.564;2023-08-20T08:36:54;9.25;;;1.90;;
56455;SDS011;42354;53.218;6.564;2023-08-20T08:39:19;10.60;;;2.15;;
56455;SDS011;42354;53.218;6.564;2023-08-20T08:41:45;9.52;;;1.70;;
56455;SDS011;42354;53.218;6.564;2023-08-20T08:44:14;10.80;;;1.70;;
56455;SDS011;42354;53.218;6.564;2023-08-20T08:46:41;8.43;;;1.92;;
56455;SDS011;42354;53.218;6.564;2023-08-20T08:49:07;7.82;;;1.48;;
56455;SDS011;42354;53.218;6.564;2023-08-20T08:51:33;8.13;;;1.73;;
56455;SDS011;42354;53.218;6.564;2023-08-20T08:54:01;6.05;;;1.38;;
56455;SDS011;42354;53.218;6.564;2023-08-20T08:56:27;11.73;;;2.10;;
56455;SDS011;42354;53.218;6.564;2023-08-20T08:58:53;12.43;;;1.80;;
56455;SDS011;42354;53.218;6.564;2023-08-20T09:01:19;10.05;;;1.67;;
56455;SDS011;42354;53.218;6.564;2023-08-20T09:03:48;6.72;;;1.35;;
56455;SDS011;42354;53.218;6.564;2023-08-20T09:06:14;9.40;;;1.60;;
56455;SDS011;42354;53.218;6.564;2023-08-20T09:08:39;11.20;;;1.77;;
56455;SDS011;42354;53.218;6.564;2023-08-20T09:11:05;7.68;;;1.17;;
56455;SDS011;42354;53.218;6.564;2023-08-20T09:13:37;9.30;;;1.90;;
56455;SDS011;42354;53.218;6.564;2023-08-20T09:16:10;7.38;;;1.60;;
56455;SDS011;42354;53.218;6.564;2023-08-20T09:18:40;8.70;;;1.52;;
56455;SDS011;42354;53.218;6.564;2023-08-20T09:21:10;9.82;;;1.23;;
56455;SDS011;42354;53.218;6.564;2023-08-20T09:23:37;6.07;;;1.35;;
56455;SDS011;42354;53.218;6.564;2023-08-20T09:26:04;9.38;;;1.80;;
56455;SDS011;42354;53.218;6.564;2023-08-20T09:28:40;4.28;;;1.10;;
56455;SDS011;42354;53.218;6.564;2023-08-20T09:31:09;8.18;;;1.30;;
56455;SDS011;42354;53.218;6.564;2023-08-20T09:33:35;6.28;;;1.00;;
56455;SDS011;42354;53.218;6.564;2023-08-20T09:36:00;6.05;;;1.17;;
56455;SDS011;42354;53.218;6.564;2023-08-20T09:38:28;9.23;;;1.33;;
56455;SDS011;42354;53.218;6.564;2023-08-20T09:40:54;7.60;;;1.75;;
56455;SDS011;42354;53.218;6.564;2023-08-20T09:43:23;12.05;;;2.08;;
56455;SDS011;42354;53.218;6.564;2023-08-20T09:45:54;7.63;;;1.95;;
56455;SDS011;42354;53.218;6.564;2023-08-20T09:48:20;10.40;;;1.55;;
56455;SDS011;42354;53.218;6.564;2023-08-20T09:50:47;4.50;;;1.35;;
56455;SDS011;42354;53.218;6.564;2023-08-20T09:53:37;6.18;;;1.25;;
56455;SDS011;42354;53.218;6.564;2023-08-20T09:56:20;11.35;;;1.50;;
56455;SDS011;42354;53.218;6.564;2023-08-20T09:58:52;9.82;;;1.75;;
56455;SDS011;42354;53.218;6.564;2023-08-20T10:01:19;9.07;;;1.77;;
56455;SDS011;42354;53.218;6.564;2023-08-20T10:03:45;8.27;;;1.45;;
56455;SDS011;42354;53.218;6.564;2023-08-20T10:06:11;7.82;;;1.60;;
56455;SDS011;42354;53.218;6.564;2023-08-20T10:08:36;9.02;;;1.48;;
56455;SDS011;42354;53.218;6.564;2023-08-20T10:11:03;5.63;;;1.33;;
56455;SDS011;42354;53.218;6.564;2023-08-20T10:13:28;8.13;;;1.45;;
56455;SDS011;42354;53.218;6.564;2023-08-20T10:15:54;7.80;;;1.40;;
56455;SDS011;42354;53.218;6.564;2023-08-20T10:18:20;8.07;;;1.90;;
56455;SDS011;42354;53.218;6.564;2023-08-20T10:20:49;7.70;;;1.90;;
56455;SDS011;42354;53.218;6.564;2023-08-20T10:23:17;8.65;;;1.45;;
56455;SDS011;42354;53.218;6.564;2023-08-20T10:25:46;5.80;;;1.85;;
56455;SDS011;42354;53.218;6.564;2023-08-20T10:28:13;7.88;;;2.10;;
56455;SDS011;42354;53.218;6.564;2023-08-20T10:33:28;8.15;;;1.95;;
56455;SDS011;42354;53.218;6.564;2023-08-20T10:35:54;6.43;;;1.33;;
56455;SDS011;42354;53.218;6.564;2023-08-20T10:38:19;8.85;;;1.67;;
56455;SDS011;42354;53.218;6.564;2023-08-20T10:43:33;6.70;;;1.40;;
56455;SDS011;42354;53.218;6.564;2023-08-20T10:48:39;5.53;;;1.10;;
56455;SDS011;42354;53.218;6.564;2023-08-20T10:53:38;5.78;;;1.27;;
56455;SDS011;42354;53.218;6.564;2023-08-20T10:56:12;8.10;;;1.27;;
56455;SDS011;42354;53.218;6.564;2023-08-20T10:58:44;7.68;;;1.23;;
56455;SDS011;42354;53.218;6.564;2023-08-20T11:01:21;5.80;;;1.10;;
56455;SDS011;42354;53.218;6.564;2023-08-20T11:03:50;4.05;;;1.23;;
56455;SDS011;42354;53.218;6.564;2023-08-20T11:06:16;7.70;;;1.35;;
56455;SDS011;42354;53.218;6.564;2023-08-20T11:08:43;6.53;;;1.10;;
56455;SDS011;42354;53.218;6.564;2023-08-20T11:11:09;6.82;;;1.10;;
56455;SDS011;42354;53.218;6.564;2023-08-20T11:13:36;9.60;;;1.55;;
56455;SDS011;42354;53.218;6.564;2023-08-20T11:16:02;6.63;;;1.08;;
56455;SDS011;42354;53.218;6.564;2023-08-20T11:18:29;7.70;;;1.35;;
56455;SDS011;42354;53.218;6.564;2023-08-20T11:20:56;6.07;;;1.30;;
56455;SDS011;42354;53.218;6.564;2023-08-20T11:23:22;6.90;;;1.52;;
56455;SDS011;42354;53.218;6.564;2023-08-20T11:25:48;5.78;;;1.25;;
56455;SDS011;42354;53.218;6.564;2023-08-20T11:28:13;4.07;;;1.30;;
56455;SDS011;42354;53.218;6.564;2023-08-20T11:30:39;7.43;;;1.60;;
56455;SDS011;42354;53.218;6.564;2023-08-20T11:33:04;5.43;;;1.02;;
56455;SDS011;42354;53.218;6.564;2023-08-20T11:35:30;7.13;;;1.10;;
56455;SDS011;42354;53.218;6.564;2023-08-20T11:37:57;6.55;;;1.27;;
56455;SDS011;42354;53.218;6.564;2023-08-20T11:40:23;5.43;;;1.00;;
56455;SDS011;42354;53.218;6.564;2023-08-20T11:42:49;6.80;;;0.98;;
56455;SDS011;42354;53.218;6.564;2023-08-20T11:45:17;5.53;;;1.00;;
56455;SDS011;42354;53.218;6.564;2023-08-20T11:47:43;8.13;;;1.30;;
56455;SDS011;42354;53.218;6.564;2023-08-20T11:50:09;7.32;;;1.23;;
56455;SDS011;42354;53.218;6.564;2023-08-20T11:52:35;4.75;;;1.30;;
56455;SDS011;42354;53.218;6.564;2023-08-20T11:55:01;8.63;;;1.52;;
56455;SDS011;42354;53.218;6.564;2023-08-20T11:57:28;7.80;;;1.75;;
56455;SDS011;42354;53.218;6.564;2023-08-20T11:59:54;7.45;;;1.50;;
56455;SDS011;42354;53.218;6.564;2023-08-20T12:02:26;8.02;;;1.48;;
56455;SDS011;42354;53.218;6.564;2023-08-20T12:04:54;9.83;;;1.53;;
56455;SDS011;42354;53.218;6.564;2023-08-20T12:07:21;7.45;;;1.02;;
56455;SDS011;42354;53.218;6.564;2023-08-20T12:09:54;10.98;;;1.27;;
56455;SDS011;42354;53.218;6.564;2023-08-20T12:12:20;8.85;;;1.42;;
56455;SDS011;42354;53.218;6.564;2023-08-20T12:14:46;7.20;;;1.38;;
56455;SDS011;42354;53.218;6.564;2023-08-20T12:17:12;6.07;;;1.55;;
56455;SDS011;42354;53.218;6.564;2023-08-20T12:19:41;4.30;;;1.48;;
56455;SDS011;42354;53.218;6.564;2023-08-20T12:22:07;8.90;;;1.20;;
56455;SDS011;42354;53.218;6.564;2023-08-20T12:24:33;6.07;;;1.25;;
56455;SDS011;42354;53.218;6.564;2023-08-20T12:26:59;3.92;;;1.00;;
56455;SDS011;42354;53.218;6.564;2023-08-20T12:29:24;5.50;;;1.40;;
56455;SDS011;42354;53.218;6.564;2023-08-20T12:31:49;7.35;;;1.27;;
56455;SDS011;42354;53.218;6.564;2023-08-20T12:34:15;7.60;;;1.30;;
56455;SDS011;42354;53.218;6.564;2023-08-20T12:36:40;5.80;;;1.10;;
56455;SDS011;42354;53.218;6.564;2023-08-20T12:39:05;7.75;;;1.42;;
56455;SDS011;42354;53.218;6.564;2023-08-20T12:41:31;7.97;;;1.27;;
56455;SDS011;42354;53.218;6.564;2023-08-20T12:43:57;6.07;;;1.13;;
56455;SDS011;42354;53.218;6.564;2023-08-20T12:46:23;8.82;;;1.30;;
56455;SDS011;42354;53.218;6.564;2023-08-20T12:48:48;6.40;;;1.20;;
56455;SDS011;42354;53.218;6.564;2023-08-20T12:51:14;4.97;;;1.33;;
56455;SDS011;42354;53.218;6.564;2023-08-20T12:53:42;9.40;;;1.50;;
56455;SDS011;42354;53.218;6.564;2023-08-20T12:56:07;8.70;;;1.20;;
56455;SDS011;42354;53.218;6.564;2023-08-20T12:58:34;8.88;;;1.50;;
56455;SDS011;42354;53.218;6.564;2023-08-20T13:01:00;9.90;;;1.40;;
56455;SDS011;42354;53.218;6.564;2023-08-20T13:03:26;6.40;;;1.35;;
56455;SDS011;42354;53.218;6.564;2023-08-20T13:05:52;7.43;;;1.30;;
56455;SDS011;42354;53.218;6.564;2023-08-20T13:08:18;9.50;;;1.30;;
56455;SDS011;42354;53.218;6.564;2023-08-20T13:10:45;8.05;;;1.65;;
56455;SDS011;42354;53.218;6.564;2023-08-20T13:13:15;7.28;;;1.58;;
56455;SDS011;42354;53.218;6.564;2023-08-20T13:15:43;6.43;;;1.63;;
56455;SDS011;42354;53.218;6.564;2023-08-20T13:18:10;6.07;;;1.23;;
56455;SDS011;42354;53.218;6.564;2023-08-20T13:20:38;4.13;;;1.00;;
56455;SDS011;42354;53.218;6.564;2023-08-20T13:23:04;6.35;;;1.15;;
56455;SDS011;42354;53.218;6.564;2023-08-20T13:25:30;5.40;;;1.77;;
56455;SDS011;42354;53.218;6.564;2023-08-20T13:27:55;5.55;;;1.67;;
56455;SDS011;42354;53.218;6.564;2023-08-20T13:30:20;3.88;;;0.90;;
56455;SDS011;42354;53.218;6.564;2023-08-20T13:32:46;6.10;;;1.02;;
56455;SDS011;42354;53.218;6.564;2023-08-20T13:35:11;3.85;;;1.13;;
56455;SDS011;42354;53.218;6.564;2023-08-20T13:37:37;4.13;;;1.10;;
56455;SDS011;42354;53.218;6.564;2023-08-20T13:40:02;4.50;;;1.08;;
56455;SDS011;42354;53.218;6.564;2023-08-20T13:42:32;3.88;;;1.05;;
56455;SDS011;42354;53.218;6.564;2023-08-20T13:44:57;4.72;;;1.20;;
56455;SDS011;42354;53.218;6.564;2023-08-20T13:47:22;6.00;;;1.63;;
56455;SDS011;42354;53.218;6.564;2023-08-20T13:49:48;5.35;;;1.05;;
56455;SDS011;42354;53.218;6.564;2023-08-20T13:52:15;4.55;;;1.02;;
56455;SDS011;42354;53.218;6.564;2023-08-20T13:54:40;9.63;;;1.38;;
56455;SDS011;42354;53.218;6.564;2023-08-20T13:57:07;7.25;;;1.08;;
56455;SDS011;42354;53.218;6.564;2023-08-20T13:59:32;4.43;;;1.33;;
56455;SDS011;42354;53.218;6.564;2023-08-20T14:01:58;3.90;;;1.25;;
56455;SDS011;42354;53.218;6.564;2023-08-20T14:04:23;5.38;;;1.20;;
56455;SDS011;42354;53.218;6.564;2023-08-20T14:06:52;5.13;;;1.10;;
56455;SDS011;42354;53.218;6.564;2023-08-20T14:09:18;3.50;;;0.90;;
56455;SDS011;42354;53.218;6.564;2023-08-20T14:11:44;9.90;;;1.73;;
56455;SDS011;42354;53.218;6.564;2023-08-20T14:14:10;5.80;;;1.20;;
56455;SDS011;42354;53.218;6.564;2023-08-20T14:16:35;7.28;;;1.33;;
56455;SDS011;42354;53.218;6.564;2023-08-20T14:19:00;3.90;;;0.90;;
56455;SDS011;42354;53.218;6.564;2023-08-20T14:23:55;3.70;;;1.20;;
56455;SDS011;42354;53.218;6.564;2023-08-20T14:26:21;5.35;;;1.00;;
56455;SDS011;42354;53.218;6.564;2023-08-20T14:28:46;4.40;;;0.90;;
56455;SDS011;42354;53.218;6.564;2023-08-20T14:31:12;5.97;;;1.00;;
56455;SDS011;42354;53.218;6.564;2023-08-20T14:33:37;7.38;;;1.50;;
56455;SDS011;42354;53.218;6.564;2023-08-20T14:36:03;4.15;;;1.20;;
56455;SDS011;42354;53.218;6.564;2023-08-20T14:38:28;3.33;;;0.90;;
56455;SDS011;42354;53.218;6.564;2023-08-20T14:40:58;8.60;;;1.10;;
56455;SDS011;42354;53.218;6.564;2023-08-20T14:43:24;7.90;;;1.02;;
56455;SDS011;42354;53.218;6.564;2023-08-20T14:45:51;5.13;;;1.30;;
56455;SDS011;42354;53.218;6.564;2023-08-20T14:48:17;8.23;;;1.58;;
56455;SDS011;42354;53.218;6.564;2023-08-20T14:50:42;3.88;;;0.80;;
56455;SDS011;42354;53.218;6.564;2023-08-20T14:53:08;5.78;;;1.00;;
56455;SDS011;42354;53.218;6.564;2023-08-20T14:55:34;5.43;;;1.17;;
56455;SDS011;42354;53.218;6.564;2023-08-20T14:58:00;3.88;;;1.20;;
56455;SDS011;42354;53.218;6.564;2023-08-20T15:00:25;7.00;;;1.00;;
56455;SDS011;42354;53.218;6.564;2023-08-20T15:02:50;3.13;;;0.70;;